createdAt,value
2018-04-10T00:01:49.876Z,14.23
2018-04-10T00:04:18.212Z,11.03
2018-04-10T00:06:48.503Z,14.13
2018-04-10T00:09:16.773Z,16.10
2018-04-10T00:11:45.255Z,17.52
2018-04-10T00:14:13.733Z,19.00
2018-04-10T00:16:42.104Z,15.57
2018-04-10T00:19:10.509Z,18.33
2018-04-10T00:21:38.833Z,14.50
2018-04-10T00:24:07.172Z,20.80
2018-04-10T00:26:35.524Z,20.40
2018-04-10T00:29:03.924Z,18.37
2018-04-10T00:31:32.297Z,17.43
2018-04-10T00:34:00.868Z,18.33
2018-04-10T00:36:29.233Z,14.53
2018-04-10T00:38:57.581Z,13.10
2018-04-10T00:41:26.139Z,14.97
2018-04-10T00:43:55.364Z,17.33
2018-04-10T00:46:24.002Z,21.53
2018-04-10T00:48:52.398Z,20.30
2018-04-10T00:51:21.588Z,17.63
2018-04-10T00:53:50.822Z,19.30
2018-04-10T00:56:19.154Z,16.17
2018-04-10T00:58:47.742Z,18.27
2018-04-10T01:01:16.401Z,20.97
2018-04-10T01:03:44.730Z,14.73
2018-04-10T01:06:13.929Z,23.07
2018-04-10T01:08:44.117Z,18.10
2018-04-10T01:11:12.393Z,23.30
2018-04-10T01:13:40.874Z,20.83
2018-04-10T01:16:09.932Z,23.77
2018-04-10T01:18:38.271Z,19.83
2018-04-10T01:21:07.442Z,22.07
2018-04-10T01:23:35.796Z,15.50
2018-04-10T01:26:04.138Z,19.77
2018-04-10T01:28:32.464Z,23.48
2018-04-10T01:31:01.021Z,18.40
2018-04-10T01:33:29.445Z,22.42
2018-04-10T01:35:57.909Z,19.87
2018-04-10T01:38:26.231Z,20.73
2018-04-10T01:40:54.712Z,18.53
2018-04-10T01:43:23.766Z,17.43
2018-04-10T01:45:52.269Z,22.37
2018-04-10T01:48:20.778Z,21.10
2018-04-10T01:50:49.215Z,18.53
2018-04-10T01:53:17.520Z,20.48
2018-04-10T01:55:46.688Z,20.00
2018-04-10T01:58:15.034Z,20.23
2018-04-10T02:00:43.353Z,23.00
2018-04-10T02:03:11.666Z,21.30
2018-04-10T02:05:40.144Z,20.27
2018-04-10T02:08:08.707Z,22.10
2018-04-10T02:10:38.984Z,24.48
2018-04-10T02:13:07.579Z,20.37
2018-04-10T02:15:35.866Z,20.73
2018-04-10T02:18:04.569Z,20.93
2018-04-10T02:20:33.861Z,24.80
2018-04-10T02:23:02.165Z,18.93
2018-04-10T02:25:31.285Z,18.10
2018-04-10T02:27:59.678Z,22.83
2018-04-10T02:30:28.089Z,21.13
2018-04-10T02:32:56.448Z,21.83
2018-04-10T02:35:24.903Z,20.67
2018-04-10T02:37:53.265Z,21.60
2018-04-10T02:40:21.765Z,19.90
2018-04-10T02:42:50.122Z,22.37
2018-04-10T02:45:18.593Z,19.57
2018-04-10T02:47:47.804Z,20.77
2018-04-10T02:50:16.093Z,26.00
2018-04-10T02:52:44.556Z,19.07
2018-04-10T02:55:12.886Z,17.63
2018-04-10T02:57:41.439Z,17.77
2018-04-10T03:00:09.850Z,17.23
2018-04-10T03:02:38.125Z,22.70
2018-04-10T03:05:06.483Z,19.30
2018-04-10T03:07:34.880Z,16.10
2018-04-10T03:10:03.326Z,21.35
2018-04-10T03:12:31.641Z,21.33
2018-04-10T03:15:01.499Z,15.87
2018-04-10T03:17:29.900Z,19.80
2018-04-10T03:19:58.565Z,30.12
2018-04-10T03:22:27.000Z,27.00
2018-04-10T03:24:55.309Z,20.50
2018-04-10T03:27:24.454Z,22.10
2018-04-10T03:29:52.901Z,22.87
2018-04-10T03:32:21.361Z,22.25
2018-04-10T03:34:50.665Z,27.83
2018-04-10T03:37:19.856Z,25.90
2018-04-10T03:39:49.074Z,31.90
2018-04-10T03:42:17.436Z,29.80
2018-04-10T03:44:46.649Z,24.37
2018-04-10T03:47:15.255Z,18.30
2018-04-10T03:49:43.555Z,21.33
2018-04-10T03:52:11.883Z,29.67
2018-04-10T03:54:40.964Z,23.93
2018-04-10T03:57:10.045Z,20.33
2018-04-10T03:59:38.324Z,21.00
2018-04-10T04:02:06.696Z,24.33
2018-04-10T04:04:35.000Z,19.97
2018-04-10T04:07:06.004Z,22.17
2018-04-10T04:09:34.279Z,21.33
2018-04-10T04:12:02.579Z,21.33
2018-04-10T04:14:31.805Z,25.40
2018-04-10T04:17:18.100Z,28.43
2018-04-10T04:20:04.295Z,25.27
2018-04-10T04:22:40.404Z,20.50
2018-04-10T04:25:08.796Z,23.23
2018-04-10T04:27:38.739Z,22.13
2018-04-10T04:30:08.175Z,31.57
2018-04-10T04:32:36.476Z,36.07
2018-04-10T04:35:04.825Z,32.63
2018-04-10T04:37:33.255Z,26.23
2018-04-10T04:40:01.578Z,23.93
2018-04-10T04:42:30.455Z,23.17
2018-04-10T04:44:58.784Z,28.50
2018-04-10T04:47:27.358Z,22.77
2018-04-10T04:49:55.811Z,24.97
2018-04-10T04:52:24.556Z,21.73
2018-04-10T04:54:53.784Z,22.77
2018-04-10T04:57:22.198Z,25.37
2018-04-10T04:59:50.780Z,25.30
2018-04-10T05:02:19.356Z,23.73
2018-04-10T05:04:48.140Z,22.13
2018-04-10T05:07:16.495Z,18.92
2018-04-10T05:09:44.884Z,23.17
2018-04-10T05:12:13.234Z,24.43
2018-04-10T05:14:42.323Z,24.27
2018-04-10T05:17:11.442Z,23.83
2018-04-10T05:19:39.796Z,22.80
2018-04-10T05:22:09.130Z,25.20
2018-04-10T05:24:37.500Z,29.00
2018-04-10T05:27:05.980Z,24.17
2018-04-10T05:29:34.561Z,24.37
2018-04-10T05:32:03.028Z,26.13
2018-04-10T05:34:32.040Z,23.12
2018-04-10T05:37:00.434Z,21.87
2018-04-10T05:39:28.759Z,25.97
2018-04-10T05:41:57.060Z,28.10
2018-04-10T05:44:25.369Z,24.57
2018-04-10T05:46:53.671Z,19.52
2018-04-10T05:49:22.116Z,28.57
2018-04-10T05:51:50.469Z,35.83
2018-04-10T05:54:19.156Z,29.67
2018-04-10T05:56:47.595Z,26.07
2018-04-10T05:59:15.873Z,25.57
2018-04-10T06:01:44.279Z,25.97
2018-04-10T06:04:14.799Z,25.27
2018-04-10T06:06:43.312Z,27.70
2018-04-10T06:09:11.735Z,21.93
2018-04-10T06:11:40.050Z,27.67
2018-04-10T06:14:09.110Z,27.83
2018-04-10T06:16:37.511Z,27.90
2018-04-10T06:19:06.576Z,34.15
2018-04-10T06:21:34.968Z,22.35
2018-04-10T06:24:03.419Z,25.23
2018-04-10T06:26:31.730Z,27.48
2018-04-10T06:29:00.955Z,26.37
2018-04-10T06:31:29.519Z,29.57
2018-04-10T06:33:57.905Z,30.17
2018-04-10T06:36:27.031Z,33.43
2018-04-10T06:38:55.477Z,32.70
2018-04-10T06:41:24.727Z,25.33
2018-04-10T06:43:53.075Z,29.97
2018-04-10T06:46:21.372Z,27.77
2018-04-10T06:48:49.833Z,26.27
2018-04-10T06:51:18.392Z,25.83
2018-04-10T06:53:47.641Z,28.85
2018-04-10T06:56:16.130Z,23.53
2018-04-10T06:58:44.777Z,24.08
2018-04-10T07:01:13.156Z,27.92
2018-04-10T07:03:41.763Z,27.15
2018-04-10T07:06:10.710Z,21.63
2018-04-10T07:08:39.051Z,27.03
2018-04-10T07:11:07.528Z,21.17
2018-04-10T07:13:35.834Z,19.33
2018-04-10T07:16:05.009Z,22.13
2018-04-10T07:18:33.671Z,20.33
2018-04-10T07:21:02.150Z,19.57
2018-04-10T07:23:30.480Z,19.58
2018-04-10T07:25:58.829Z,21.83
2018-04-10T07:28:27.416Z,19.40
2018-04-10T07:30:55.838Z,19.27
2018-04-10T07:33:24.905Z,20.10
2018-04-10T07:35:53.455Z,19.23
2018-04-10T07:38:23.939Z,16.53
2018-04-10T07:40:53.117Z,19.27
2018-04-10T07:43:21.655Z,24.17
2018-04-10T07:45:50.034Z,16.50
2018-04-10T07:48:18.519Z,17.73
2018-04-10T07:50:46.994Z,19.83
2018-04-10T07:53:15.328Z,16.43
2018-04-10T07:55:44.576Z,20.17
2018-04-10T07:58:13.007Z,17.23
2018-04-10T08:00:42.193Z,15.80
2018-04-10T08:03:10.575Z,14.70
2018-04-10T08:05:39.075Z,19.40
2018-04-10T08:08:08.121Z,17.80
2018-04-10T08:10:37.552Z,16.65
2018-04-10T08:13:07.008Z,14.33
2018-04-10T08:15:35.322Z,18.30
2018-04-10T08:18:03.727Z,17.80
2018-04-10T08:20:32.908Z,21.43
2018-04-10T08:23:01.198Z,16.13
2018-04-10T08:25:30.457Z,19.83
2018-04-10T08:27:58.730Z,16.62
2018-04-10T08:30:27.055Z,17.53
2018-04-10T08:32:56.231Z,13.70
2018-04-10T08:35:26.100Z,14.13
2018-04-10T08:40:28.963Z,14.02
2018-04-10T08:42:58.305Z,12.23
2018-04-10T08:45:26.653Z,14.50
2018-04-10T08:47:55.198Z,15.07
2018-04-10T08:50:23.576Z,14.63
2018-04-10T08:52:51.914Z,12.87
2018-04-10T08:55:20.211Z,15.60
2018-04-10T08:57:48.691Z,15.23
2018-04-10T09:00:17.040Z,11.33
2018-04-10T09:02:45.742Z,10.93
2018-04-10T09:05:14.193Z,11.13
2018-04-10T09:07:43.233Z,10.20
2018-04-10T09:10:11.560Z,9.17
2018-04-10T09:12:40.761Z,10.35
2018-04-10T09:15:09.878Z,9.33
2018-04-10T09:17:38.333Z,9.03
2018-04-10T09:20:08.349Z,12.43
2018-04-10T09:22:43.955Z,10.30
2018-04-10T09:25:12.278Z,12.87
2018-04-10T09:27:41.810Z,6.93
2018-04-10T09:30:10.185Z,12.10
2018-04-10T09:32:38.659Z,7.80
2018-04-10T09:35:06.982Z,6.47
2018-04-10T09:37:35.654Z,8.87
2018-04-10T09:40:04.295Z,7.90
2018-04-10T09:42:32.777Z,5.53
2018-04-10T09:45:01.083Z,6.33
2018-04-10T09:47:29.641Z,7.03
2018-04-10T09:49:57.977Z,4.93
2018-04-10T09:52:26.467Z,8.40
2018-04-10T09:54:54.977Z,8.03
2018-04-10T09:57:23.273Z,7.10
2018-04-10T09:59:51.568Z,5.97
2018-04-10T10:02:20.115Z,8.00
2018-04-10T10:04:48.619Z,7.50
2018-04-10T10:07:17.015Z,8.93
2018-04-10T10:09:45.583Z,5.43
2018-04-10T10:12:14.090Z,6.07
2018-04-10T10:14:42.432Z,6.70
2018-04-10T10:17:10.817Z,8.20
2018-04-10T10:19:39.367Z,6.93
2018-04-10T10:22:08.613Z,7.72
2018-04-10T10:24:37.017Z,7.43
2018-04-10T10:27:05.333Z,7.00
2018-04-10T10:29:33.948Z,9.03
2018-04-10T10:32:02.262Z,8.47
2018-04-10T10:34:30.823Z,5.53
2018-04-10T10:36:59.135Z,6.97
2018-04-10T10:39:28.364Z,8.30
2018-04-10T10:41:56.903Z,5.63
2018-04-10T10:44:25.320Z,9.43
2018-04-10T10:46:53.633Z,5.83
2018-04-10T10:49:22.033Z,6.70
2018-04-10T10:51:51.967Z,5.93
2018-04-10T10:54:21.084Z,7.47
2018-04-10T10:56:49.604Z,7.37
2018-04-10T10:59:18.392Z,6.78
2018-04-10T11:01:47.780Z,6.47
2018-04-10T11:04:16.176Z,8.90
2018-04-10T11:06:44.480Z,8.30
2018-04-10T11:09:13.728Z,6.70
2018-04-10T11:11:42.042Z,7.00
2018-04-10T11:14:10.369Z,6.20
2018-04-10T11:16:38.808Z,7.23
2018-04-10T11:19:07.297Z,9.10
2018-04-10T11:21:35.652Z,6.37
2018-04-10T11:24:04.098Z,12.20
2018-04-10T11:26:32.402Z,6.33
2018-04-10T11:29:00.667Z,6.10
2018-04-10T11:31:29.373Z,4.87
2018-04-10T11:33:57.872Z,6.00
2018-04-10T11:36:26.265Z,8.57
2018-04-10T11:38:55.481Z,5.40
2018-04-10T11:41:23.805Z,4.70
2018-04-10T11:43:52.444Z,7.23
2018-04-10T11:46:21.090Z,11.43
2018-04-10T11:48:49.744Z,7.28
2018-04-10T11:51:18.168Z,7.63
2018-04-10T11:53:47.366Z,8.50
2018-04-10T11:56:15.776Z,6.55
2018-04-10T11:58:44.359Z,8.23
2018-04-10T12:01:13.569Z,5.40
2018-04-10T12:03:41.875Z,7.87
2018-04-10T12:06:10.178Z,8.07
2018-04-10T12:08:39.388Z,9.13
2018-04-10T12:11:08.463Z,5.73
2018-04-10T12:13:36.802Z,8.48
2018-04-10T12:16:05.094Z,3.90
2018-04-10T12:18:33.418Z,7.00
2018-04-10T12:21:02.025Z,5.82
2018-04-10T12:23:30.547Z,4.45
2018-04-10T12:25:58.920Z,5.00
2018-04-10T12:28:27.232Z,5.00
2018-04-10T12:30:55.960Z,3.93
2018-04-10T12:33:24.436Z,6.00
2018-04-10T12:35:53.727Z,6.63
2018-04-10T12:38:22.054Z,5.33
2018-04-10T12:40:50.403Z,4.57
2018-04-10T12:43:18.719Z,3.77
2018-04-10T12:45:47.854Z,4.17
2018-04-10T12:48:16.161Z,6.10
2018-04-10T12:50:44.527Z,2.85
2018-04-10T12:53:14.354Z,3.63
2018-04-10T12:55:42.803Z,6.05
2018-04-10T12:58:11.202Z,7.23
2018-04-10T13:00:39.673Z,5.23
2018-04-10T13:03:08.029Z,7.03
2018-04-10T13:05:36.522Z,6.37
2018-04-10T13:08:04.914Z,9.67
2018-04-10T13:10:33.248Z,8.93
2018-04-10T13:13:02.444Z,4.00
2018-04-10T13:15:31.617Z,7.47
2018-04-10T13:17:59.967Z,4.60
2018-04-10T13:20:28.521Z,3.28
2018-04-10T13:22:56.964Z,5.60
2018-04-10T13:25:26.108Z,3.78
2018-04-10T13:27:54.641Z,7.53
2018-04-10T13:30:23.142Z,5.47
2018-04-10T13:32:52.383Z,5.80
2018-04-10T13:35:21.031Z,4.60
2018-04-10T13:37:50.249Z,4.73
2018-04-10T13:40:18.883Z,5.77
2018-04-10T13:42:47.189Z,2.60
2018-04-10T13:45:16.397Z,5.20
2018-04-10T13:47:44.772Z,5.80
2018-04-10T13:50:13.963Z,6.10
2018-04-10T13:52:43.126Z,7.78
2018-04-10T13:55:11.535Z,7.53
2018-04-10T13:57:40.722Z,8.90
2018-04-10T14:00:09.828Z,12.13
2018-04-10T14:02:39.044Z,10.20
2018-04-10T14:05:07.613Z,12.13
2018-04-10T14:07:36.702Z,14.70
2018-04-10T14:10:05.780Z,14.83
2018-04-10T14:12:35.699Z,13.30
2018-04-10T14:15:05.047Z,12.73
2018-04-10T14:17:33.629Z,10.80
2018-04-10T14:20:02.095Z,12.40
2018-04-10T14:22:30.408Z,14.98
2018-04-10T14:24:58.820Z,12.83
2018-04-10T14:27:28.377Z,12.15
2018-04-10T14:29:56.687Z,12.67
2018-04-10T14:32:25.103Z,9.85
2018-04-10T14:34:54.250Z,14.27
2018-04-10T14:37:22.783Z,14.87
2018-04-10T14:39:52.591Z,13.75
2018-04-10T14:42:22.991Z,14.13
2018-04-10T14:44:51.603Z,14.77
2018-04-10T14:47:20.020Z,12.43
2018-04-10T14:49:48.608Z,16.57
2018-04-10T14:52:17.131Z,18.60
2018-04-10T14:54:46.075Z,16.12
2018-04-10T14:57:14.448Z,15.45
2018-04-10T14:59:43.103Z,21.08
2018-04-10T15:02:11.707Z,26.58
2018-04-10T15:04:40.208Z,22.77
2018-04-10T15:07:08.926Z,24.23
2018-04-10T15:09:37.356Z,21.30
2018-04-10T15:12:06.136Z,29.07
2018-04-10T15:14:36.579Z,29.80
2018-04-10T15:17:04.999Z,28.57
2018-04-10T15:19:33.365Z,27.60
2018-04-10T15:22:01.755Z,29.93
2018-04-10T15:24:30.878Z,24.33
2018-04-10T15:27:00.060Z,25.63
2018-04-10T15:29:28.574Z,25.63
2018-04-10T15:31:57.074Z,25.83
2018-04-10T15:34:25.553Z,26.30
2018-04-10T15:36:53.865Z,27.77
2018-04-10T15:39:22.227Z,31.57
2018-04-10T15:41:51.074Z,29.10
2018-04-10T15:44:19.440Z,31.97
2018-04-10T15:46:49.484Z,27.17
2018-04-10T15:49:18.001Z,33.93
2018-04-10T15:51:46.367Z,30.03
2018-04-10T15:54:14.808Z,27.80
2018-04-10T15:56:43.507Z,27.63
2018-04-10T15:59:11.957Z,30.77
2018-04-10T16:01:41.228Z,28.83
2018-04-10T16:04:10.385Z,30.60
2018-04-10T16:06:38.759Z,31.70
2018-04-10T16:09:07.265Z,30.75
2018-04-10T16:11:35.845Z,34.05
2018-04-10T16:14:04.230Z,28.67
2018-04-10T16:16:32.567Z,33.30
2018-04-10T16:19:02.818Z,37.03
2018-04-10T16:21:31.165Z,29.20
2018-04-10T16:24:00.272Z,29.40
2018-04-10T16:26:28.615Z,31.07
2018-04-10T16:28:57.430Z,38.27
2018-04-10T16:31:26.606Z,36.40
2018-04-10T16:33:54.975Z,41.60
2018-04-10T16:36:23.502Z,37.25
2018-04-10T16:38:51.838Z,37.42
2018-04-10T16:41:20.187Z,38.08
2018-04-10T16:43:48.556Z,35.67
2018-04-10T16:46:16.931Z,40.70
2018-04-10T16:48:45.459Z,38.07
2018-04-10T16:51:13.805Z,40.17
2018-04-10T16:53:42.264Z,42.13
2018-04-10T16:56:10.642Z,40.83
2018-04-10T16:58:39.068Z,42.03
2018-04-10T17:01:07.562Z,41.58
2018-04-10T17:03:36.674Z,45.73
2018-04-10T17:06:06.994Z,43.67
2018-04-10T17:08:36.150Z,35.50
2018-04-10T17:11:04.485Z,49.30
2018-04-10T17:13:32.893Z,48.25
2018-04-10T17:16:01.255Z,47.63
2018-04-10T17:18:29.885Z,45.47
2018-04-10T17:20:58.303Z,49.37
2018-04-10T17:23:26.640Z,45.13
2018-04-10T17:25:55.054Z,44.40
2018-04-10T17:28:23.422Z,45.80
2018-04-10T17:30:52.608Z,35.57
2018-04-10T17:33:21.049Z,41.23
2018-04-10T17:35:49.459Z,42.43
2018-04-10T17:38:18.697Z,40.83
2018-04-10T17:40:47.150Z,38.87
2018-04-10T17:43:16.397Z,33.45
2018-04-10T17:45:44.758Z,43.27
2018-04-10T17:48:13.149Z,37.43
2018-04-10T17:50:41.527Z,40.63
2018-04-10T17:53:11.533Z,41.03
2018-04-10T17:55:39.939Z,37.20
2018-04-10T17:58:08.371Z,43.77
2018-04-10T18:00:37.495Z,46.40
2018-04-10T18:03:05.894Z,34.23
2018-04-10T18:05:34.355Z,43.03
2018-04-10T18:08:02.941Z,36.83
2018-04-10T18:10:31.385Z,48.87
2018-04-10T18:13:00.222Z,42.87
2018-04-10T18:15:28.779Z,36.77
2018-04-10T18:17:57.230Z,42.77
2018-04-10T18:20:26.440Z,36.53
2018-04-10T18:22:55.576Z,43.07
2018-04-10T18:25:24.091Z,47.80
2018-04-10T18:27:52.640Z,41.53
2018-04-10T18:30:21.611Z,40.97
2018-04-10T18:32:50.055Z,42.03
2018-04-10T18:35:18.614Z,49.90
2018-04-10T18:37:47.701Z,54.27
2018-04-10T18:40:16.899Z,44.87
2018-04-10T18:42:45.295Z,41.23
2018-04-10T18:45:13.863Z,43.50
2018-04-10T18:47:42.237Z,43.37
2018-04-10T18:50:10.728Z,42.53
2018-04-10T18:52:39.038Z,44.27
2018-04-10T18:55:07.633Z,38.73
2018-04-10T18:57:40.039Z,42.03
2018-04-10T19:00:08.789Z,39.90
2018-04-10T19:02:38.610Z,40.33
2018-04-10T19:05:08.163Z,36.90
2018-04-10T19:07:36.524Z,37.03
2018-04-10T19:10:04.947Z,36.30
2018-04-10T19:12:34.894Z,45.63
2018-04-10T19:15:03.609Z,41.27
2018-04-10T19:17:32.125Z,41.92
2018-04-10T19:20:01.496Z,42.17
2018-04-10T19:22:29.990Z,43.63
2018-04-10T19:24:58.339Z,42.93
2018-04-10T19:27:27.247Z,44.50
2018-04-10T19:29:55.610Z,47.23
2018-04-10T19:32:24.050Z,29.27
2018-04-10T19:34:52.454Z,19.43
2018-04-10T19:37:20.928Z,10.48
2018-04-10T19:39:49.344Z,15.30
2018-04-10T19:42:17.629Z,9.90
2018-04-10T19:44:46.202Z,10.50
2018-04-10T19:47:14.531Z,11.07
2018-04-10T19:49:43.716Z,14.15
2018-04-10T19:52:12.048Z,12.23
2018-04-10T19:54:40.443Z,12.83
2018-04-10T19:57:08.877Z,12.07
2018-04-10T19:59:38.308Z,13.43
2018-04-10T20:02:06.782Z,13.57
2018-04-10T20:04:35.194Z,12.37
2018-04-10T20:07:03.828Z,13.00
2018-04-10T20:09:32.401Z,12.97
2018-04-10T20:12:01.653Z,14.43
2018-04-10T20:14:29.964Z,14.43
2018-04-10T20:16:58.495Z,14.37
2018-04-10T20:19:26.897Z,17.70
2018-04-10T20:21:55.398Z,13.00
2018-04-10T20:24:23.904Z,17.87
2018-04-10T20:26:53.054Z,14.13
2018-04-10T20:29:21.373Z,14.67
2018-04-10T20:31:50.538Z,17.80
2018-04-10T20:34:19.707Z,15.85
2018-04-10T20:36:48.020Z,18.60
2018-04-10T20:39:16.484Z,15.47
2018-04-10T20:41:44.925Z,16.33
2018-04-10T20:44:13.541Z,16.60
2018-04-10T20:46:41.968Z,17.70
2018-04-10T20:49:11.134Z,17.40
2018-04-10T20:51:39.494Z,19.33
2018-04-10T20:54:07.955Z,18.77
2018-04-10T20:56:36.318Z,21.20
2018-04-10T20:59:04.713Z,23.23
2018-04-10T21:01:34.089Z,20.85
2018-04-10T21:04:03.375Z,22.85
2018-04-10T21:06:31.807Z,21.03
2018-04-10T21:09:00.209Z,23.77
2018-04-10T21:11:28.564Z,27.93
2018-04-10T21:13:56.890Z,25.30
2018-04-10T21:16:26.244Z,24.40
2018-04-10T21:18:54.720Z,24.20
2018-04-10T21:21:23.219Z,24.03
2018-04-10T21:23:53.402Z,21.75
2018-04-10T21:26:21.756Z,23.20
2018-04-10T21:28:50.995Z,25.55
2018-04-10T21:31:19.350Z,25.10
2018-04-10T21:33:47.796Z,21.83
2018-04-10T21:36:16.382Z,21.60
2018-04-10T21:38:44.752Z,23.97
2018-04-10T21:41:13.082Z,22.70
2018-04-10T21:43:41.421Z,24.47
2018-04-10T21:46:09.846Z,26.40
2018-04-10T21:48:38.250Z,23.55
2018-04-10T21:51:06.819Z,26.77
2018-04-10T21:53:35.284Z,23.27
2018-04-10T21:56:03.799Z,24.87
2018-04-10T21:58:32.194Z,22.60
2018-04-10T22:01:00.720Z,26.17
2018-04-10T22:03:29.152Z,26.63
2018-04-10T22:05:57.532Z,32.73
2018-04-10T22:08:26.776Z,31.53
2018-04-10T22:10:55.094Z,33.70
2018-04-10T22:13:23.439Z,38.25
2018-04-10T22:15:51.972Z,39.37
2018-04-10T22:18:20.450Z,37.45
2018-04-10T22:20:48.796Z,39.20
2018-04-10T22:23:17.075Z,38.93
2018-04-10T22:25:45.485Z,34.83
2018-04-10T22:28:13.860Z,36.27
2018-04-10T22:30:42.340Z,39.17
2018-04-10T22:33:10.771Z,37.17
2018-04-10T22:35:39.216Z,35.47
2018-04-10T22:38:07.618Z,39.57
2018-04-10T22:40:35.975Z,43.17
2018-04-10T22:43:04.444Z,48.28
2018-04-10T22:45:33.561Z,41.30
2018-04-10T22:48:01.890Z,44.92
2018-04-10T22:50:30.475Z,42.40
2018-04-10T22:52:58.785Z,42.63
2018-04-10T22:55:27.216Z,42.43
2018-04-10T22:57:55.537Z,47.93
2018-04-10T23:03:29.926Z,32.77
2018-04-10T23:05:58.221Z,31.97
2018-04-10T23:08:26.533Z,31.17
2018-04-10T23:10:55.636Z,30.87
2018-04-10T23:13:24.714Z,27.57
2018-04-10T23:15:56.233Z,24.40
2018-04-10T23:18:24.775Z,27.83
2018-04-10T23:20:54.009Z,27.92
2018-04-10T23:23:22.631Z,25.13
2018-04-10T23:25:50.952Z,28.45
2018-04-10T23:28:19.409Z,24.40
2018-04-10T23:30:48.656Z,23.53
2018-04-10T23:33:16.942Z,25.83
2018-04-10T23:35:46.363Z,21.17
2018-04-10T23:38:15.021Z,21.10
2018-04-10T23:40:43.479Z,21.20
2018-04-10T23:43:11.753Z,21.40
2018-04-10T23:45:40.062Z,21.97
2018-04-10T23:48:08.522Z,22.35
2018-04-10T23:50:36.865Z,21.87
2018-04-10T23:53:05.450Z,20.67
2018-04-10T23:55:33.751Z,20.83
2018-04-10T23:58:02.879Z,21.60
